Silver Cloud — C6MQ5 — position and weather

sailwx.info

Track history (hours):
 
Tides and Currents Weather Stations Pressure Air Temp Water Temp Dewpoint Dewpoint Depression Visibility Wind Speed Wind Dir Waves Ship Positions

Silver Cloud

Operator: V Ships Leisure SAM

Last reported at 2014-Dec-15 04:32 UTC. Time now 2014-Dec-20 00:09 UTC.
Position N 20°27' W 087°03'.

Length 155 m; draft 5.7 m.

Type: Passenger vessel. MMSI: 309027000.

Date/timePositionNaut miles runAvg speedWind from/ knotsBaromVisibWave heightAir tempDewpointWater temp
2014-Dec-15 04:32N 20°27' W 087°03'6 5.8
2014-Dec-15 03:31N 20°31' W 086°57'0 0.0
2014-Dec-15 02:31N 20°31' W 086°57'0 0.0
2014-Dec-15 01:31N 20°31' W 086°57'0 0.0
2014-Dec-15 00:31N 20°31' W 086°57'0 0.0
2014-Dec-14 23:31N 20°31' W 086°57'0 0.0
2014-Dec-14 22:31N 20°31' W 086°57'0 0.0
2014-Dec-14 21:31N 20°31' W 086°57'0 0.0
2014-Dec-14 20:30N 20°31' W 086°57'0 0.0
2014-Dec-14 19:30N 20°31' W 086°57'0 0.0
2014-Dec-14 18:30N 20°31' W 086°57'0 0.0
2014-Dec-14 17:30N 20°31' W 086°57'0 0.0
2014-Dec-14 16:30N 20°31' W 086°57'0 0.0
2014-Dec-14 15:21N 20°31' W 086°57'0 0.0
2014-Dec-14 14:30N 20°31' W 086°57'0 0.0
2014-Dec-14 13:30N 20°31' W 086°57'49413.7
2014-Dec-13 01:21N 25°39' W 079°58'1214.7
2014-Dec-13 00:33N 25°51' W 080°01'1414.1
2014-Dec-12 23:33N 26°04' W 080°04'3 2.8
2014-Dec-12 22:25N 26°05' W 080°07'0 0.0
2014-Dec-12 21:25N 26°05' W 080°07'0 0.0
2014-Dec-12 20:25N 26°05' W 080°07'0 0.0
2014-Dec-12 19:25N 26°05' W 080°07'0 0.0
2014-Dec-12 18:28N 26°05' W 080°07'0 0.0
2014-Dec-12 17:28N 26°05' W 080°07'0 0.0
2014-Dec-12 16:28N 26°05' W 080°07'0 0.0
2014-Dec-12 15:28N 26°05' W 080°07'0 0.0
2014-Dec-12 14:31N 26°05' W 080°07'0 0.0
2014-Dec-12 13:31N 26°05' W 080°07'0 0.0
2014-Dec-12 12:31N 26°05' W 080°07'0 0.5
2014-Dec-12 11:33N 26°06' W 080°07'9 8.9
2014-Dec-12 10:33N 25°58' W 080°01'1413.5
2014-Dec-12 09:33N 25°45' W 079°59'49014.8
2014-Dec-11 00:29N 20°37' W 086°54'7 7.1
2014-Dec-10 23:33N 20°31' W 086°57'0 0.1
2014-Dec-10 22:33N 20°31' W 086°57'0 0.1
2014-Dec-10 21:34N 20°31' W 086°57'0 0.1
2014-Dec-10 20:33N 20°31' W 086°57'0 0.0
2014-Dec-10 19:33N 20°31' W 086°57'0 0.1
2014-Dec-10 18:32N 20°31' W 086°57'0 0.0
2014-Dec-10 17:32N 20°31' W 086°57'0 0.1
2014-Dec-10 16:32N 20°31' W 086°57'0 0.1
2014-Dec-10 15:33N 20°31' W 086°57'0 0.2
2014-Dec-10 14:33N 20°31' W 086°57'0 0.3
2014-Dec-10 13:33N 20°31' W 086°57'  
2014-Dec-06 01:23N 25°37' W 079°58'1214.2
2014-Dec-06 00:33N 25°49' W 080°00'1414.0
2014-Dec-05 23:33N 26°03' W 080°03'4 3.6
2014-Dec-05 22:19N 26°05' W 080°07'0 0.0
2014-Dec-05 21:31N 26°05' W 080°07'0 0.0
2014-Dec-05 20:31N 26°05' W 080°07'0 0.0
2014-Dec-05 19:22N 26°05' W 080°07'0 0.0
2014-Dec-05 18:22N 26°05' W 080°07'0 0.0
2014-Dec-05 17:25N 26°05' W 080°07'0 0.0
2014-Dec-05 16:25N 26°05' W 080°07'0 0.0
2014-Dec-05 15:25N 26°05' W 080°07'0 0.0
2014-Dec-05 14:25N 26°05' W 080°07'0 0.0
2014-Dec-05 13:25N 26°05' W 080°07'0 0.0
2014-Dec-05 12:27N 26°05' W 080°07'0 0.0
2014-Dec-05 11:27N 26°05' W 080°07'5 6.0
2014-Dec-05 10:33N 26°06' W 080°01'1110.6
2014-Dec-05 09:33N 26°08' W 079°49'1110.5
2014-Dec-05 08:33N 26°10' W 079°38'10 9.6
2014-Dec-05 07:33N 26°15' W 079°28'5 2.4
2014-Dec-05 05:25N 26°15' W 079°23'  
Track history (hours):
 
Tides and Currents Weather Stations Pressure Air Temp Water Temp Dewpoint Dewpoint Depression Visibility Wind Speed Wind Dir Waves Ship Positions

Silver Cloud

Operator: V Ships Leisure SAM

Last reported at 2014-Dec-15 04:32 UTC. Time now 2014-Dec-20 00:09 UTC.
Position N 20°27' W 087°03'.

Length 155 m; draft 5.7 m.

Type: Passenger vessel. MMSI: 309027000.

Date/timePositionNaut miles runAvg speedWind from/ knotsBaromVisibWave heightAir tempDewpointWater temp
2014-Dec-15 04:32N 20°27' W 087°03'6 5.8
2014-Dec-15 03:31N 20°31' W 086°57'0 0.0
2014-Dec-15 02:31N 20°31' W 086°57'0 0.0
2014-Dec-15 01:31N 20°31' W 086°57'0 0.0
2014-Dec-15 00:31N 20°31' W 086°57'0 0.0
2014-Dec-14 23:31N 20°31' W 086°57'0 0.0
2014-Dec-14 22:31N 20°31' W 086°57'0 0.0
2014-Dec-14 21:31N 20°31' W 086°57'0 0.0
2014-Dec-14 20:30N 20°31' W 086°57'0 0.0
2014-Dec-14 19:30N 20°31' W 086°57'0 0.0
2014-Dec-14 18:30N 20°31' W 086°57'0 0.0
2014-Dec-14 17:30N 20°31' W 086°57'0 0.0
2014-Dec-14 16:30N 20°31' W 086°57'0 0.0
2014-Dec-14 15:21N 20°31' W 086°57'0 0.0
2014-Dec-14 14:30N 20°31' W 086°57'0 0.0
2014-Dec-14 13:30N 20°31' W 086°57'49413.7
2014-Dec-13 01:21N 25°39' W 079°58'1214.7
2014-Dec-13 00:33N 25°51' W 080°01'1414.1
2014-Dec-12 23:33N 26°04' W 080°04'3 2.8
2014-Dec-12 22:25N 26°05' W 080°07'0 0.0
2014-Dec-12 21:25N 26°05' W 080°07'0 0.0
2014-Dec-12 20:25N 26°05' W 080°07'0 0.0
2014-Dec-12 19:25N 26°05' W 080°07'0 0.0
2014-Dec-12 18:28N 26°05' W 080°07'0 0.0
2014-Dec-12 17:28N 26°05' W 080°07'0 0.0
2014-Dec-12 16:28N 26°05' W 080°07'0 0.0
2014-Dec-12 15:28N 26°05' W 080°07'0 0.0
2014-Dec-12 14:31N 26°05' W 080°07'0 0.0
2014-Dec-12 13:31N 26°05' W 080°07'0 0.0
2014-Dec-12 12:31N 26°05' W 080°07'0 0.5
2014-Dec-12 11:33N 26°06' W 080°07'9 8.9
2014-Dec-12 10:33N 25°58' W 080°01'1413.5
2014-Dec-12 09:33N 25°45' W 079°59'49014.8
2014-Dec-11 00:29N 20°37' W 086°54'7 7.1
2014-Dec-10 23:33N 20°31' W 086°57'0 0.1
2014-Dec-10 22:33N 20°31' W 086°57'0 0.1
2014-Dec-10 21:34N 20°31' W 086°57'0 0.1
2014-Dec-10 20:33N 20°31' W 086°57'0 0.0
2014-Dec-10 19:33N 20°31' W 086°57'0 0.1
2014-Dec-10 18:32N 20°31' W 086°57'0 0.0
2014-Dec-10 17:32N 20°31' W 086°57'0 0.1
2014-Dec-10 16:32N 20°31' W 086°57'0 0.1
2014-Dec-10 15:33N 20°31' W 086°57'0 0.2
2014-Dec-10 14:33N 20°31' W 086°57'0 0.3
2014-Dec-10 13:33N 20°31' W 086°57'  
2014-Dec-06 01:23N 25°37' W 079°58'1214.2
2014-Dec-06 00:33N 25°49' W 080°00'1414.0
2014-Dec-05 23:33N 26°03' W 080°03'4 3.6
2014-Dec-05 22:19N 26°05' W 080°07'0 0.0
2014-Dec-05 21:31N 26°05' W 080°07'0 0.0
2014-Dec-05 20:31N 26°05' W 080°07'0 0.0
2014-Dec-05 19:22N 26°05' W 080°07'0 0.0
2014-Dec-05 18:22N 26°05' W 080°07'0 0.0
2014-Dec-05 17:25N 26°05' W 080°07'0 0.0
2014-Dec-05 16:25N 26°05' W 080°07'0 0.0
2014-Dec-05 15:25N 26°05' W 080°07'0 0.0
2014-Dec-05 14:25N 26°05' W 080°07'0 0.0
2014-Dec-05 13:25N 26°05' W 080°07'0 0.0
2014-Dec-05 12:27N 26°05' W 080°07'0 0.0
2014-Dec-05 11:27N 26°05' W 080°07'5 6.0
2014-Dec-05 10:33N 26°06' W 080°01'1110.6
2014-Dec-05 09:33N 26°08' W 079°49'1110.5
2014-Dec-05 08:33N 26°10' W 079°38'10 9.6
2014-Dec-05 07:33N 26°15' W 079°28'5 2.4
2014-Dec-05 05:25N 26°15' W 079°23'  

Dump ship's entire track history